createdAt,value
2023-10-06T00:02:08.916Z,97906.72
2023-10-06T00:04:40.032Z,97902.63
2023-10-06T00:07:09.735Z,97901.78
2023-10-06T00:09:36.588Z,97909.81
2023-10-06T00:12:06.316Z,97909.09
2023-10-06T00:14:41.921Z,97919.03
2023-10-06T00:17:20.413Z,97918.44
2023-10-06T00:19:51.303Z,97912.50
2023-10-06T00:22:17.850Z,97909.75
2023-10-06T00:24:49.024Z,97906.78
2023-10-06T00:27:16.862Z,97905.72
2023-10-06T00:29:56.208Z,97903.78
2023-10-06T00:32:29.857Z,97902.84
2023-10-06T00:35:18.759Z,97907.09
2023-10-06T00:37:45.360Z,97913.09
2023-10-06T00:40:20.388Z,97913.44
2023-10-06T00:42:50.606Z,97901.47
2023-10-06T00:45:17.288Z,97911.22
2023-10-06T00:47:43.894Z,97907.47
2023-10-06T00:50:15.967Z,97900.50
2023-10-06T00:52:43.820Z,97903.94
2023-10-06T00:55:15.362Z,97899.38
2023-10-06T00:57:41.993Z,97908.50
2023-10-06T01:00:20.746Z,97912.28
2023-10-06T01:02:48.049Z,97916.38
2023-10-06T01:05:17.769Z,97918.81
2023-10-06T01:07:47.815Z,97915.41
2023-10-06T01:10:18.661Z,97915.00
2023-10-06T01:12:52.984Z,97915.88
2023-10-06T01:15:20.676Z,97914.91
2023-10-06T01:17:48.188Z,97918.31
2023-10-06T01:20:34.959Z,97910.69
2023-10-06T01:23:02.354Z,97916.75
2023-10-06T01:25:34.300Z,97914.81
2023-10-06T01:28:04.661Z,97916.59
2023-10-06T01:30:31.193Z,97914.94
2023-10-06T01:32:59.624Z,97917.63
2023-10-06T01:35:27.794Z,97916.91
2023-10-06T01:38:01.643Z,97915.31
2023-10-06T01:40:28.658Z,97905.81
2023-10-06T01:42:55.321Z,97907.50
2023-10-06T01:45:24.665Z,97896.28
2023-10-06T01:47:58.117Z,97897.22
2023-10-06T01:50:27.786Z,97897.19
2023-10-06T01:52:57.588Z,97906.72
2023-10-06T01:55:25.430Z,97913.72
2023-10-06T01:57:55.349Z,97913.66
2023-10-06T02:00:32.333Z,97912.06
2023-10-06T02:02:58.936Z,97912.94
2023-10-06T02:05:25.497Z,97915.44
2023-10-06T02:07:52.667Z,97913.00
2023-10-06T02:10:19.659Z,97911.25
2023-10-06T02:12:46.876Z,97906.06
2023-10-06T02:15:13.472Z,97900.78
2023-10-06T02:17:43.059Z,97910.41
2023-10-06T02:20:19.961Z,97901.75
2023-10-06T02:22:46.582Z,97913.84
2023-10-06T02:25:13.500Z,97907.72
2023-10-06T02:27:46.019Z,97908.59
2023-10-06T02:30:14.313Z,97911.13
2023-10-06T02:32:40.987Z,97904.38
2023-10-06T02:35:09.042Z,97908.66
2023-10-06T02:37:35.823Z,97919.03
2023-10-06T02:40:12.014Z,97922.50
2023-10-06T02:42:49.698Z,97931.09
2023-10-06T02:45:31.526Z,97922.53
2023-10-06T02:48:01.106Z,97917.31
2023-10-06T02:50:27.651Z,97919.97
2023-10-06T02:52:54.969Z,97924.25
2023-10-06T02:55:22.408Z,97918.22
2023-10-06T02:57:57.122Z,97915.66
2023-10-06T03:00:24.135Z,97918.22
2023-10-06T03:02:58.278Z,97919.94
2023-10-06T03:05:34.818Z,97912.19
2023-10-06T03:08:12.804Z,97907.84
2023-10-06T03:10:44.409Z,97901.88
2023-10-06T03:13:16.042Z,97913.13
2023-10-06T03:15:47.122Z,97904.44
2023-10-06T03:18:16.981Z,97909.63
2023-10-06T03:21:14.135Z,97910.28
2023-10-06T03:23:40.978Z,97902.78
2023-10-06T03:26:15.139Z,97914.78
2023-10-06T03:28:44.649Z,97930.28
2023-10-06T03:31:31.682Z,97930.34
2023-10-06T03:33:58.806Z,97926.91
2023-10-06T03:36:37.831Z,97925.25
2023-10-06T03:39:09.174Z,97918.28
2023-10-06T03:41:38.517Z,97918.31
2023-10-06T03:44:05.732Z,97924.41
2023-10-06T03:46:40.606Z,97933.00
2023-10-06T03:49:09.231Z,97933.81
2023-10-06T03:51:39.734Z,97935.59
2023-10-06T03:54:06.842Z,97936.50
2023-10-06T03:56:33.597Z,97932.06
2023-10-06T03:59:13.592Z,97926.03
2023-10-06T04:01:40.284Z,97926.91
2023-10-06T04:04:08.461Z,97920.03
2023-10-06T04:06:36.254Z,97925.97
2023-10-06T04:09:03.921Z,97924.34
2023-10-06T04:11:34.908Z,97917.44
2023-10-06T04:14:01.414Z,97922.78
2023-10-06T04:16:28.088Z,97923.59
2023-10-06T04:18:54.687Z,97920.00
2023-10-06T04:21:21.696Z,97921.72
2023-10-06T04:23:48.297Z,97919.94
2023-10-06T04:26:17.740Z,97922.56
2023-10-06T04:28:48.460Z,97918.16
2023-10-06T04:31:16.926Z,97925.19
2023-10-06T04:33:44.667Z,97927.78
2023-10-06T04:36:12.863Z,97917.28
2023-10-06T04:38:41.017Z,97920.91
2023-10-06T04:41:09.455Z,97921.00
2023-10-06T04:43:45.477Z,97928.75
2023-10-06T04:46:13.442Z,97922.72
2023-10-06T04:48:39.988Z,97925.31
2023-10-06T04:51:07.738Z,97925.34
2023-10-06T04:53:37.543Z,97928.81
2023-10-06T04:56:05.206Z,97925.34
2023-10-06T04:58:32.403Z,97927.97
2023-10-06T05:01:01.732Z,97932.28
2023-10-06T05:03:28.667Z,97936.59
2023-10-06T05:05:57.922Z,97937.44
2023-10-06T05:08:25.682Z,97939.13
2023-10-06T05:10:54.016Z,97941.69
2023-10-06T05:13:21.668Z,97937.38
2023-10-06T05:15:48.447Z,97936.44
2023-10-06T05:18:17.797Z,97938.25
2023-10-06T05:20:44.717Z,97937.41
2023-10-06T05:23:15.491Z,97946.00
2023-10-06T05:25:43.395Z,97945.13
2023-10-06T05:28:11.941Z,97943.44
2023-10-06T05:30:39.337Z,97942.59
2023-10-06T05:33:06.116Z,97941.69
2023-10-06T05:35:39.303Z,97943.44
2023-10-06T05:38:14.088Z,97939.13
2023-10-06T05:40:45.223Z,97941.72
2023-10-06T05:43:17.361Z,97945.13
2023-10-06T05:45:46.006Z,97946.88
2023-10-06T05:48:13.681Z,97947.75
2023-10-06T05:50:41.839Z,97949.41
2023-10-06T05:53:20.847Z,97951.16
2023-10-06T05:55:50.800Z,97947.69
2023-10-06T05:58:20.545Z,97958.03
2023-10-06T06:00:57.054Z,97956.34
2023-10-06T06:03:27.122Z,97954.53
2023-10-06T06:06:05.546Z,97956.31
2023-10-06T06:08:32.108Z,97961.47
2023-10-06T06:10:58.848Z,97952.78
2023-10-06T06:13:25.375Z,97954.50
2023-10-06T06:15:52.070Z,97965.75
2023-10-06T06:18:18.762Z,97969.22
2023-10-06T06:20:46.900Z,97966.59
2023-10-06T06:23:15.016Z,97970.91
2023-10-06T06:25:43.264Z,97975.25
2023-10-06T06:28:13.346Z,97971.78
2023-10-06T06:30:40.835Z,97980.38
2023-10-06T06:33:14.078Z,97970.88
2023-10-06T06:35:43.177Z,97979.47
2023-10-06T06:38:13.645Z,97975.06
2023-10-06T06:40:40.276Z,97988.88
2023-10-06T06:43:11.039Z,97987.16
2023-10-06T06:45:41.160Z,97989.63
2023-10-06T06:48:14.760Z,97988.88
2023-10-06T06:50:43.400Z,97991.41
2023-10-06T06:53:11.151Z,97989.69
2023-10-06T06:55:39.782Z,97997.44
2023-10-06T06:58:10.078Z,97990.50
2023-10-06T07:00:40.115Z,97994.78
2023-10-06T07:03:07.194Z,97987.63
2023-10-06T07:05:36.970Z,97994.63
2023-10-06T07:08:07.289Z,98000.63
2023-10-06T07:10:34.372Z,97998.78
2023-10-06T07:13:01.978Z,98005.72
2023-10-06T07:15:31.641Z,98004.84
2023-10-06T07:17:59.947Z,98004.81
2023-10-06T07:20:29.005Z,98002.88
2023-10-06T07:22:57.283Z,97999.31
2023-10-06T07:25:25.565Z,98008.00
2023-10-06T07:27:56.223Z,97997.72
2023-10-06T07:30:24.101Z,97995.00
2023-10-06T07:32:55.805Z,98008.00
2023-10-06T07:35:50.924Z,98002.59
2023-10-06T07:38:19.223Z,98012.06
2023-10-06T07:40:46.001Z,98006.09
2023-10-06T07:43:13.784Z,98005.53
2023-10-06T07:45:40.475Z,98008.88
2023-10-06T07:48:07.248Z,98017.59
2023-10-06T07:50:37.140Z,98015.00
2023-10-06T07:53:04.081Z,98009.13
2023-10-06T07:55:33.048Z,98014.72
2023-10-06T07:58:01.212Z,98010.56
2023-10-06T08:00:31.349Z,98002.06
2023-10-06T08:03:00.167Z,98000.84
2023-10-06T08:05:30.095Z,97995.25
2023-10-06T08:07:59.537Z,97986.69
2023-10-06T08:10:26.688Z,97991.63
2023-10-06T08:12:57.544Z,97984.06
2023-10-06T08:15:26.733Z,97976.41
2023-10-06T08:17:56.967Z,97984.47
2023-10-06T08:20:27.435Z,97991.19
2023-10-06T08:22:54.935Z,97978.00
2023-10-06T08:25:24.657Z,97970.06
2023-10-06T08:27:51.834Z,97966.81
2023-10-06T08:30:20.144Z,97965.44
2023-10-06T08:32:47.453Z,97968.72
2023-10-06T08:35:14.524Z,97966.38
2023-10-06T08:37:45.267Z,97960.56
2023-10-06T08:40:20.649Z,97968.75
2023-10-06T08:42:57.944Z,97965.97
2023-10-06T08:45:28.956Z,97967.72
2023-10-06T08:48:02.490Z,97961.28
2023-10-06T08:50:32.977Z,97956.84
2023-10-06T08:53:02.095Z,97953.09
2023-10-06T08:55:29.104Z,97943.78
2023-10-06T08:57:56.365Z,97943.31
2023-10-06T09:00:25.151Z,97941.94
2023-10-06T09:02:55.792Z,97944.38
2023-10-06T09:05:23.120Z,97934.75
2023-10-06T09:08:00.781Z,97939.81
2023-10-06T09:10:30.592Z,97942.94
2023-10-06T09:13:00.851Z,97934.66
2023-10-06T09:15:27.449Z,97952.94
2023-10-06T09:17:55.036Z,97942.81
2023-10-06T09:20:31.205Z,97947.06
2023-10-06T09:23:00.002Z,97945.41
2023-10-06T09:25:27.712Z,97948.91
2023-10-06T09:28:05.866Z,97955.72
2023-10-06T09:30:48.285Z,97959.56
2023-10-06T09:33:15.537Z,97953.88
2023-10-06T09:35:44.173Z,97947.16
2023-10-06T09:38:14.850Z,97934.44
2023-10-06T09:40:45.370Z,97925.59
2023-10-06T09:43:14.841Z,97931.94
2023-10-06T09:45:43.232Z,97932.13
2023-10-06T09:48:16.881Z,97920.47
2023-10-06T09:50:45.025Z,97914.25
2023-10-06T09:53:16.071Z,97915.25
2023-10-06T09:55:42.666Z,97916.00
2023-10-06T09:58:09.696Z,97916.59
2023-10-06T10:00:40.620Z,97911.84
2023-10-06T10:03:13.983Z,97910.41
2023-10-06T10:05:40.862Z,97916.78
2023-10-06T10:08:11.550Z,97911.16
2023-10-06T10:10:41.370Z,97907.47
2023-10-06T10:13:21.132Z,97905.44
2023-10-06T10:16:12.316Z,97906.50
2023-10-06T10:18:40.382Z,97910.84
2023-10-06T10:21:10.263Z,97904.66
2023-10-06T10:23:41.061Z,97900.84
2023-10-06T10:26:24.623Z,97899.94
2023-10-06T10:29:18.909Z,97891.53
2023-10-06T10:32:00.792Z,97884.44
2023-10-06T10:34:34.357Z,97877.84
2023-10-06T10:37:07.123Z,97876.47
2023-10-06T10:39:45.996Z,97872.88
2023-10-06T10:42:13.972Z,97862.72
2023-10-06T10:44:41.210Z,97854.22
2023-10-06T10:47:09.157Z,97858.31
2023-10-06T10:49:36.967Z,97855.38
2023-10-06T10:52:08.294Z,97866.13
2023-10-06T10:54:37.518Z,97862.75
2023-10-06T10:57:12.303Z,97859.31
2023-10-06T11:00:01.396Z,97858.28
2023-10-06T11:02:36.679Z,97851.81
2023-10-06T11:05:04.085Z,97848.94
2023-10-06T11:07:30.740Z,97844.28
2023-10-06T11:09:58.227Z,97840.34
2023-10-06T11:12:27.041Z,97838.03
2023-10-06T11:14:54.969Z,97830.00
2023-10-06T11:17:23.555Z,97823.78
2023-10-06T11:20:17.575Z,97814.88
2023-10-06T11:22:56.759Z,97800.63
2023-10-06T11:25:29.711Z,97798.78
2023-10-06T11:28:03.468Z,97807.88
2023-10-06T11:30:30.391Z,97797.97
2023-10-06T11:33:00.567Z,97788.19
2023-10-06T11:35:27.548Z,97789.50
2023-10-06T11:37:54.764Z,97770.09
2023-10-06T11:40:23.583Z,97771.34
2023-10-06T11:42:50.130Z,97763.38
2023-10-06T11:45:28.518Z,97767.53
2023-10-06T11:47:55.655Z,97743.41
2023-10-06T11:50:27.085Z,97739.22
2023-10-06T11:52:56.309Z,97739.78
2023-10-06T11:55:36.855Z,97733.44
2023-10-06T11:58:06.133Z,97736.78
2023-10-06T12:00:41.403Z,97724.84
2023-10-06T12:03:11.409Z,97730.78
2023-10-06T12:05:42.424Z,97727.09
2023-10-06T12:08:13.797Z,97718.56
2023-10-06T12:10:48.890Z,97726.19
2023-10-06T12:13:15.627Z,97731.53
2023-10-06T12:15:45.481Z,97739.00
2023-10-06T12:18:13.836Z,97742.31
2023-10-06T12:20:41.367Z,97743.09
2023-10-06T12:23:08.392Z,97744.81
2023-10-06T12:25:37.431Z,97737.75
2023-10-06T12:28:04.439Z,97733.78
2023-10-06T12:30:31.058Z,97732.66
2023-10-06T12:32:59.246Z,97727.53
2023-10-06T12:35:29.716Z,97732.41
2023-10-06T12:37:56.519Z,97737.59
2023-10-06T12:40:23.162Z,97734.53
2023-10-06T12:42:49.681Z,97731.09
2023-10-06T12:45:19.706Z,97729.50
2023-10-06T12:47:50.103Z,97728.22
2023-10-06T12:50:18.761Z,97722.72
2023-10-06T12:52:54.046Z,97723.22
2023-10-06T12:55:22.996Z,97713.59
2023-10-06T12:57:50.584Z,97720.75
2023-10-06T13:00:17.462Z,97715.41
2023-10-06T13:02:45.026Z,97719.06
2023-10-06T13:05:23.758Z,97712.56
2023-10-06T13:07:52.597Z,97716.22
2023-10-06T13:10:23.695Z,97706.63
2023-10-06T13:12:51.467Z,97715.56
2023-10-06T13:15:19.381Z,97706.75
2023-10-06T13:17:47.367Z,97702.84
2023-10-06T13:20:14.969Z,97700.50
2023-10-06T13:22:42.804Z,97705.25
2023-10-06T13:25:11.792Z,97696.91
2023-10-06T13:27:40.133Z,97704.66
2023-10-06T13:30:17.777Z,97700.41
2023-10-06T13:33:05.094Z,97693.03
2023-10-06T13:35:31.818Z,97683.59
2023-10-06T13:37:58.437Z,97674.88
2023-10-06T13:40:24.984Z,97685.50
2023-10-06T13:42:51.606Z,97678.69
2023-10-06T13:45:21.788Z,97675.81
2023-10-06T13:47:50.564Z,97671.41
2023-10-06T13:50:20.127Z,97671.84
2023-10-06T13:52:48.415Z,97680.88
2023-10-06T13:55:15.192Z,97666.97
2023-10-06T13:57:42.025Z,97668.44
2023-10-06T14:00:12.834Z,97670.91
2023-10-06T14:02:39.560Z,97670.28
2023-10-06T14:05:06.658Z,97675.09
2023-10-06T14:07:33.246Z,97677.25
2023-10-06T14:10:00.667Z,97667.63
2023-10-06T14:12:28.554Z,97658.06
2023-10-06T14:15:01.093Z,97654.78
2023-10-06T14:17:33.508Z,97652.88
2023-10-06T14:20:00.880Z,97656.16
2023-10-06T14:22:34.014Z,97654.97
2023-10-06T14:25:00.716Z,97649.72
2023-10-06T14:27:28.315Z,97647.53
2023-10-06T14:29:54.944Z,97647.63
2023-10-06T14:32:41.017Z,97654.84
2023-10-06T14:35:23.964Z,97646.91
2023-10-06T14:38:28.742Z,97642.84
2023-10-06T14:41:14.040Z,97637.31
2023-10-06T14:43:58.978Z,97641.00
2023-10-06T14:46:25.534Z,97629.94
2023-10-06T14:48:52.085Z,97634.72
2023-10-06T14:51:20.095Z,97631.13
2023-10-06T14:53:47.546Z,97634.25
2023-10-06T14:56:14.155Z,97627.00
2023-10-06T14:58:40.968Z,97624.69
2023-10-06T15:01:07.789Z,97623.94
2023-10-06T15:03:35.075Z,97619.00
2023-10-06T15:06:05.379Z,97620.66
2023-10-06T15:08:35.366Z,97619.44
2023-10-06T15:11:02.125Z,97617.69
2023-10-06T15:13:28.831Z,97613.34
2023-10-06T15:15:55.981Z,97609.53
2023-10-06T15:18:22.990Z,97615.78
2023-10-06T15:20:50.679Z,97616.94
2023-10-06T15:23:22.589Z,97616.72
2023-10-06T15:25:59.313Z,97611.59
2023-10-06T15:28:38.200Z,97608.75
2023-10-06T15:31:06.091Z,97606.91
2023-10-06T15:33:33.921Z,97615.47
2023-10-06T15:36:05.054Z,97618.13
2023-10-06T15:38:32.626Z,97621.25
2023-10-06T15:41:05.298Z,97615.13
2023-10-06T15:43:32.718Z,97615.97
2023-10-06T15:46:04.625Z,97622.16
2023-10-06T15:48:34.940Z,97611.66
2023-10-06T15:51:03.119Z,97605.38
2023-10-06T15:53:30.660Z,97602.94
2023-10-06T15:56:08.812Z,97605.63
2023-10-06T15:58:37.976Z,97607.91
2023-10-06T16:01:06.593Z,97607.13
2023-10-06T16:03:33.163Z,97607.84
2023-10-06T16:05:59.920Z,97607.66
2023-10-06T16:08:26.435Z,97605.69
2023-10-06T16:10:53.016Z,97614.78
2023-10-06T16:13:19.632Z,97624.00
2023-10-06T16:16:04.175Z,97625.06
2023-10-06T16:18:33.550Z,97630.03
2023-10-06T16:21:00.827Z,97631.41
2023-10-06T16:23:27.527Z,97635.97
2023-10-06T16:25:54.597Z,97624.41
2023-10-06T16:28:23.025Z,97626.19
2023-10-06T16:30:51.364Z,97630.69
2023-10-06T16:33:18.857Z,97620.75
2023-10-06T16:35:45.610Z,97623.41
2023-10-06T16:38:12.398Z,97621.34
2023-10-06T16:40:39.477Z,97621.22
2023-10-06T16:43:06.537Z,97631.03
2023-10-06T16:45:36.106Z,97624.47
2023-10-06T16:48:04.869Z,97622.69
2023-10-06T16:50:32.063Z,97617.59
2023-10-06T16:52:59.279Z,97619.41
2023-10-06T16:55:25.879Z,97627.16
2023-10-06T16:57:57.045Z,97625.09
2023-10-06T17:00:23.581Z,97628.56
2023-10-06T17:02:50.798Z,97628.63
2023-10-06T17:05:17.567Z,97624.63
2023-10-06T17:07:46.030Z,97626.38
2023-10-06T17:10:13.577Z,97629.06
2023-10-06T17:12:40.378Z,97624.03
2023-10-06T17:15:11.277Z,97622.25
2023-10-06T17:17:45.390Z,97628.91
2023-10-06T17:20:15.927Z,97623.31
2023-10-06T17:22:43.368Z,97621.63
2023-10-06T17:25:17.200Z,97613.47
2023-10-06T17:27:45.273Z,97612.47
2023-10-06T17:30:21.872Z,97614.00
2023-10-06T17:32:49.825Z,97609.13
2023-10-06T17:35:19.087Z,97623.03
2023-10-06T17:37:47.356Z,97614.81
2023-10-06T17:40:14.880Z,97619.50
2023-10-06T17:42:47.959Z,97613.44
2023-10-06T17:45:17.453Z,97616.72
2023-10-06T17:47:47.059Z,97612.75
2023-10-06T17:50:13.956Z,97612.56
2023-10-06T17:52:41.148Z,97614.38
2023-10-06T17:55:11.734Z,97612.34
2023-10-06T17:57:38.588Z,97612.81
2023-10-06T18:00:08.712Z,97610.41
2023-10-06T18:02:41.213Z,97610.75
2023-10-06T18:05:09.784Z,97608.53
2023-10-06T18:07:36.731Z,97618.97
2023-10-06T18:10:09.150Z,97608.34
2023-10-06T18:12:37.591Z,97616.88
2023-10-06T18:15:04.835Z,97617.19
2023-10-06T18:17:31.723Z,97624.03
2023-10-06T18:19:58.336Z,97620.31
2023-10-06T18:22:24.956Z,97632.03
2023-10-06T18:24:52.619Z,97623.34
2023-10-06T18:27:20.432Z,97643.06
2023-10-06T18:29:46.950Z,97639.81
2023-10-06T18:32:13.551Z,97636.84
2023-10-06T18:34:40.284Z,97633.13
2023-10-06T18:37:07.762Z,97642.28
2023-10-06T18:39:35.955Z,97637.50
2023-10-06T18:42:02.674Z,97633.94
2023-10-06T18:44:29.194Z,97637.94
2023-10-06T18:46:56.273Z,97638.94
2023-10-06T18:49:23.533Z,97646.78
2023-10-06T18:51:50.086Z,97650.44
2023-10-06T18:54:16.683Z,97651.34
2023-10-06T18:56:43.315Z,97649.25
2023-10-06T18:59:10.176Z,97647.75
2023-10-06T19:01:37.212Z,97647.94
2023-10-06T19:04:07.087Z,97644.69
2023-10-06T19:06:33.962Z,97631.22
2023-10-06T19:09:00.582Z,97641.75
2023-10-06T19:11:27.172Z,97642.81
2023-10-06T19:13:54.040Z,97641.94
2023-10-06T19:16:21.586Z,97639.16
2023-10-06T19:18:51.165Z,97647.19
2023-10-06T19:21:21.737Z,97640.56
2023-10-06T19:23:49.461Z,97641.75
2023-10-06T19:26:20.891Z,97638.94
2023-10-06T19:28:47.984Z,97642.47
2023-10-06T19:31:14.831Z,97641.88
2023-10-06T19:33:51.944Z,97637.56
2023-10-06T19:36:20.708Z,97638.06
2023-10-06T19:38:48.395Z,97651.22
2023-10-06T19:41:18.805Z,97646.38
2023-10-06T19:43:45.882Z,97643.34
2023-10-06T19:46:12.840Z,97645.31
2023-10-06T19:48:47.615Z,97637.19
2023-10-06T19:51:14.433Z,97638.66
2023-10-06T19:53:41.159Z,97635.34
2023-10-06T19:56:08.555Z,97642.94
2023-10-06T19:58:35.422Z,97642.88
2023-10-06T20:01:02.605Z,97647.91
2023-10-06T20:03:29.369Z,97639.84
2023-10-06T20:05:57.279Z,97638.81
2023-10-06T20:08:24.170Z,97641.47
2023-10-06T20:10:54.995Z,97645.34
2023-10-06T20:13:24.987Z,97643.66
2023-10-06T20:15:53.010Z,97646.91
2023-10-06T20:18:22.605Z,97640.81
2023-10-06T20:20:49.281Z,97647.78
2023-10-06T20:23:15.998Z,97640.38
2023-10-06T20:25:42.877Z,97648.78
2023-10-06T20:28:10.319Z,97646.06
2023-10-06T20:30:37.429Z,97638.00
2023-10-06T20:33:04.298Z,97644.66
2023-10-06T20:35:31.894Z,97639.31
2023-10-06T20:37:59.528Z,97644.13
2023-10-06T20:40:26.666Z,97640.16
2023-10-06T20:43:02.585Z,97650.72
2023-10-06T20:45:32.338Z,97652.53
2023-10-06T20:48:00.863Z,97650.63
2023-10-06T20:50:28.713Z,97659.97
2023-10-06T20:52:55.939Z,97648.44
2023-10-06T20:55:22.879Z,97656.50
2023-10-06T20:57:50.883Z,97661.88
2023-10-06T21:00:19.334Z,97655.00
2023-10-06T21:02:47.825Z,97645.69
2023-10-06T21:05:17.995Z,97648.41
2023-10-06T21:07:45.144Z,97660.41
2023-10-06T21:10:13.574Z,97661.66
2023-10-06T21:12:41.288Z,97643.06
2023-10-06T21:15:09.983Z,97641.50
2023-10-06T21:17:38.887Z,97652.91
2023-10-06T21:20:08.730Z,97654.34
2023-10-06T21:22:35.454Z,97659.66
2023-10-06T21:25:02.120Z,97662.75
2023-10-06T21:27:29.320Z,97669.41
2023-10-06T21:29:56.091Z,97670.09
2023-10-06T21:32:22.658Z,97669.66
2023-10-06T21:34:49.848Z,97659.09
2023-10-06T21:37:16.479Z,97656.13
2023-10-06T21:39:45.392Z,97657.81
2023-10-06T21:42:12.135Z,97659.13
2023-10-06T21:44:38.735Z,97661.47
2023-10-06T21:47:05.395Z,97657.84
2023-10-06T21:49:32.228Z,97662.34
2023-10-06T21:51:59.614Z,97665.19
2023-10-06T21:54:26.101Z,97661.72
2023-10-06T21:56:53.034Z,97660.84
2023-10-06T21:59:19.643Z,97658.75
2023-10-06T22:01:46.372Z,97652.75
2023-10-06T22:04:14.529Z,97667.56
2023-10-06T22:06:41.403Z,97667.50
2023-10-06T22:09:16.342Z,97670.44
2023-10-06T22:11:45.289Z,97663.88
2023-10-06T22:14:13.343Z,97661.91
2023-10-06T22:16:40.990Z,97665.91
2023-10-06T22:19:11.500Z,97660.19
2023-10-06T22:21:38.424Z,97657.44
2023-10-06T22:24:06.577Z,97651.66
2023-10-06T22:26:33.198Z,97651.59
2023-10-06T22:29:00.092Z,97643.94
2023-10-06T22:31:26.821Z,97644.97
2023-10-06T22:33:56.514Z,97645.09
2023-10-06T22:36:24.117Z,97640.00
2023-10-06T22:38:55.210Z,97635.28
2023-10-06T22:41:21.826Z,97634.78
2023-10-06T22:43:48.955Z,97635.56
2023-10-06T22:46:16.132Z,97646.41
2023-10-06T22:48:45.347Z,97649.69
2023-10-06T22:51:13.677Z,97653.09
2023-10-06T22:53:40.248Z,97641.97
2023-10-06T22:56:07.613Z,97642.09
2023-10-06T22:58:34.324Z,97647.38
2023-10-06T23:01:01.495Z,97642.19
2023-10-06T23:03:30.326Z,97633.50
2023-10-06T23:05:57.899Z,97639.81
2023-10-06T23:08:25.321Z,97632.63
2023-10-06T23:10:52.002Z,97634.22
2023-10-06T23:13:18.889Z,97636.63
2023-10-06T23:15:48.391Z,97638.13
2023-10-06T23:18:17.996Z,97628.53
2023-10-06T23:20:44.912Z,97632.81
2023-10-06T23:23:11.837Z,97631.94
2023-10-06T23:25:40.355Z,97633.97
2023-10-06T23:28:08.485Z,97635.53
2023-10-06T23:30:36.238Z,97640.59
2023-10-06T23:33:02.841Z,97632.31
2023-10-06T23:35:29.557Z,97639.47
2023-10-06T23:37:56.260Z,97642.63
2023-10-06T23:40:23.778Z,97638.44
2023-10-06T23:42:51.275Z,97637.72
2023-10-06T23:45:21.479Z,97642.28
2023-10-06T23:47:49.008Z,97644.97
2023-10-06T23:50:16.444Z,97647.72
2023-10-06T23:52:45.879Z,97641.88
2023-10-06T23:55:15.581Z,97636.63
2023-10-06T23:57:46.642Z,97633.50
